Time;durP1;ratioP1;P1;durP2;ratioP2;P2;SDS_P1;SDS_P2;PMS_P1;PMS_P2;Temp;Humidity;BMP_temperature;BMP_pressure;BME280_temperature;BME280_humidity;BME280_pressure;Samples;Min_cycle;Max_cycle;Signal;HPM_P1;HPM_P2
2024/03/19 00:00:14;;;;;;;41.77;38.87;;;7.00;68.30;;;;;;5056842;28;20176;-89
2024/03/19 00:02:40;;;;;;;41.10;38.13;;;7.00;68.90;;;;;;5039026;28;20203;-88
2024/03/19 00:05:06;;;;;;;40.40;37.57;;;7.00;69.20;;;;;;5056862;28;20192;-89
2024/03/19 00:07:32;;;;;;;41.23;38.53;;;7.00;69.00;;;;;;5056942;28;20230;-89
2024/03/19 00:09:57;;;;;;;41.00;38.10;;;6.90;68.80;;;;;;5056529;28;20200;-87
2024/03/19 00:12:24;;;;;;;42.10;39.03;;;6.90;69.00;;;;;;5038466;28;20660;-88
2024/03/19 00:14:50;;;;;;;41.80;39.00;;;6.90;69.30;;;;;;5056576;28;20255;-89
2024/03/19 00:17:16;;;;;;;41.80;38.80;;;6.90;69.10;;;;;;5038552;28;20555;-88
2024/03/19 00:19:42;;;;;;;42.10;38.97;;;6.90;69.10;;;;;;5038628;28;20176;-88
2024/03/19 00:22:08;;;;;;;42.37;39.50;;;6.90;69.60;;;;;;5056415;28;20184;-88
2024/03/19 00:24:37;;;;;;;41.87;38.97;;;6.90;69.80;;;;;;5055936;28;20195;-87
2024/03/19 00:27:02;;;;;;;42.03;39.03;;;6.90;69.60;;;;;;5037895;28;20207;-88
2024/03/19 00:29:28;;;;;;;41.40;38.50;;;6.90;69.20;;;;;;5037850;28;20202;-87
2024/03/19 00:31:54;;;;;;;42.90;40.10;;;6.80;69.30;;;;;;5037687;28;20237;-87
2024/03/19 00:34:20;;;;;;;42.07;38.97;;;6.90;69.50;;;;;;5037988;28;20184;-86
2024/03/19 00:36:46;;;;;;;41.80;38.93;;;6.90;69.50;;;;;;5056294;28;20173;-88
2024/03/19 00:39:11;;;;;;;41.00;38.13;;;6.80;68.80;;;;;;5038037;28;20180;-88
2024/03/19 00:41:37;;;;;;;39.83;37.23;;;6.80;68.70;;;;;;5038067;28;20196;-89
2024/03/19 00:44:04;;;;;;;40.63;37.70;;;6.90;68.80;;;;;;5038066;28;20187;-89
2024/03/19 00:46:30;;;;;;;41.90;39.17;;;6.90;69.00;;;;;;5038052;28;20554;-88
2024/03/19 00:48:55;;;;;;;42.50;39.63;;;6.90;68.40;;;;;;5037852;28;20560;-88
2024/03/19 00:51:21;;;;;;;41.67;38.87;;;6.90;68.70;;;;;;5055450;28;20204;-88
2024/03/19 00:53:47;;;;;;;42.97;39.77;;;6.90;68.90;;;;;;5037983;28;20168;-88
2024/03/19 00:56:12;;;;;;;41.83;39.13;;;6.90;68.90;;;;;;5038021;28;20176;-89
2024/03/19 00:58:38;;;;;;;43.50;40.60;;;6.80;68.70;;;;;;5037900;28;20560;-88
2024/03/19 01:01:03;;;;;;;41.80;38.90;;;6.80;68.60;;;;;;5037737;28;20172;-88
2024/03/19 01:03:29;;;;;;;40.57;37.87;;;6.80;68.20;;;;;;5037894;28;20187;-88
2024/03/19 01:05:54;;;;;;;41.30;38.53;;;6.80;67.80;;;;;;5037748;28;20636;-89
2024/03/19 01:08:20;;;;;;;42.13;39.13;;;6.80;67.50;;;;;;5037724;28;20555;-88
2024/03/19 01:10:46;;;;;;;41.83;38.87;;;6.80;67.70;;;;;;5037805;28;20204;-89
2024/03/19 01:13:11;;;;;;;41.63;38.40;;;6.80;67.60;;;;;;5055500;28;20265;-88
2024/03/19 01:15:37;;;;;;;21.70;20.20;;;6.80;68.10;;;;;;5037601;28;20198;-89
2024/03/19 01:18:04;;;;;;;22.00;20.30;;;6.80;68.40;;;;;;5055305;28;20294;-88
2024/03/19 01:20:31;;;;;;;21.23;19.80;;;6.80;67.80;;;;;;5037518;28;20183;-88
2024/03/19 01:22:58;;;;;;;21.63;20.03;;;6.80;67.50;;;;;;5037333;28;20298;-88
2024/03/19 01:25:24;;;;;;;22.77;20.60;;;6.80;67.20;;;;;;5055330;28;20192;-88
2024/03/19 01:27:51;;;;;;;21.50;20.00;;;6.80;68.00;;;;;;5055625;28;20164;-88
2024/03/19 01:30:17;;;;;;;22.63;20.77;;;6.80;67.70;;;;;;5055169;28;20679;-89
2024/03/19 01:32:42;;;;;;;22.13;20.53;;;6.70;68.00;;;;;;5037024;28;20192;-88
2024/03/19 01:35:08;;;;;;;22.07;20.50;;;6.70;68.30;;;;;;5037237;28;20187;-88
2024/03/19 01:37:34;;;;;;;21.27;19.47;;;6.60;68.30;;;;;;5037532;28;20249;-88
2024/03/19 01:40:00;;;;;;;21.27;19.87;;;6.50;68.40;;;;;;5055051;28;20651;-88
2024/03/19 01:42:27;;;;;;;21.97;20.37;;;6.50;68.50;;;;;;5054770;28;20566;-88
2024/03/19 01:45:08;;;;;;;20.97;19.53;;;6.40;68.80;;;;;;5054760;28;20207;-88
2024/03/19 01:47:36;;;;;;;22.57;20.73;;;6.40;69.20;;;;;;5055165;28;20595;-88
2024/03/19 01:50:08;;;;;;;21.27;19.77;;;6.40;69.00;;;;;;5055748;28;20196;-90
2024/03/19 01:52:37;;;;;;;21.57;20.07;;;6.50;69.00;;;;;;5020424;28;20208;-90
2024/03/19 01:55:04;;;;;;;21.93;20.23;;;6.50;68.90;;;;;;5054290;28;20184;-91
2024/03/19 01:57:29;;;;;;;22.17;20.53;;;6.50;68.60;;;;;;5036487;28;20180;-91
2024/03/19 01:59:55;;;;;;;22.67;21.07;;;6.50;68.70;;;;;;5054212;28;20191;-91
2024/03/19 02:02:30;;;;;;;22.10;20.60;;;6.50;68.20;;;;;;5054344;28;20198;-91
2024/03/19 02:04:57;;;;;;;21.67;20.17;;;6.50;68.50;;;;;;5037352;28;20176;-90
2024/03/19 02:07:22;;;;;;;22.93;21.03;;;6.50;68.30;;;;;;5054404;28;20175;-89
2024/03/19 02:09:49;;;;;;;22.07;20.37;;;6.50;68.70;;;;;;5054085;28;20176;-90
2024/03/19 02:12:15;;;;;;;43.67;40.77;;;6.50;69.10;;;;;;5035995;28;20214;-89
2024/03/19 02:14:41;;;;;;;40.63;37.97;;;6.50;69.10;;;;;;5036095;28;20176;-89
2024/03/19 02:17:06;;;;;;;42.37;39.43;;;6.40;68.90;;;;;;5053400;28;20258;-90
2024/03/19 02:19:34;;;;;;;43.10;40.20;;;6.40;69.40;;;;;;5035930;28;20266;-90
2024/03/19 02:21:59;;;;;;;42.80;39.97;;;6.40;70.00;;;;;;5036079;28;20204;-90
2024/03/19 02:24:25;;;;;;;42.43;39.63;;;6.30;70.10;;;;;;5053935;28;20234;-90
2024/03/19 02:26:51;;;;;;;39.00;36.40;;;6.30;70.50;;;;;;5054116;28;20179;-90
2024/03/19 02:29:17;;;;;;;42.37;39.50;;;6.30;69.90;;;;;;5053741;28;20582;-89
2024/03/19 02:31:43;;;;;;;41.63;38.93;;;6.30;70.00;;;;;;5035851;28;20585;-89
2024/03/19 02:34:08;;;;;;;41.27;38.33;;;6.30;70.40;;;;;;5035989;28;20176;-89
2024/03/19 02:36:34;;;;;;;41.20;38.00;;;6.30;70.40;;;;;;5054063;28;20258;-88
2024/03/19 02:38:59;;;;;;;40.73;37.93;;;6.20;70.40;;;;;;5035637;28;20176;-89
2024/03/19 02:41:25;;;;;;;42.63;39.57;;;6.20;70.40;;;;;;5035592;28;20195;-89
2024/03/19 02:43:50;;;;;;;43.10;40.30;;;6.30;70.60;;;;;;5035797;28;20179;-89
2024/03/19 02:46:16;;;;;;;43.53;40.53;;;6.30;70.70;;;;;;5035882;28;20737;-89
2024/03/19 02:48:41;;;;;;;41.10;38.27;;;6.20;70.70;;;;;;5054171;28;20179;-89
2024/03/19 02:51:07;;;;;;;40.83;38.07;;;6.20;70.90;;;;;;5035723;28;20203;-89
2024/03/19 02:53:32;;;;;;;40.50;37.73;;;6.20;70.60;;;;;;5035655;28;20222;-89
2024/03/19 02:55:58;;;;;;;42.53;39.73;;;6.10;71.10;;;;;;5053489;28;20172;-89
2024/03/19 02:58:23;;;;;;;42.90;40.00;;;6.10;71.70;;;;;;5035707;28;20179;-89
2024/03/19 03:00:52;;;;;;;41.83;39.03;;;6.00;71.40;;;;;;5035688;28;20179;-88
2024/03/19 03:03:18;;;;;;;43.27;40.17;;;5.90;71.60;;;;;;5036481;28;20246;-87
2024/03/19 03:05:45;;;;;;;39.80;37.20;;;5.90;71.90;;;;;;5036000;28;20186;-88
2024/03/19 03:08:11;;;;;;;40.23;37.43;;;5.90;72.10;;;;;;5053993;28;20179;-88
2024/03/19 03:10:37;;;;;;;41.57;38.77;;;5.80;71.90;;;;;;5053651;28;20203;-89
2024/03/19 03:13:03;;;;;;;39.77;36.83;;;5.80;72.00;;;;;;5053480;28;20285;-89
2024/03/19 03:15:29;;;;;;;37.37;34.87;;;5.80;72.30;;;;;;5053741;28;20208;-88
2024/03/19 03:17:57;;;;;;;39.87;37.23;;;5.80;72.60;;;;;;5035774;28;20168;-88
2024/03/19 03:20:23;;;;;;;41.60;38.70;;;5.80;72.70;;;;;;5035750;28;20172;-89
2024/03/19 03:22:49;;;;;;;40.80;37.90;;;5.80;73.10;;;;;;5036268;28;20613;-87
2024/03/19 03:25:15;;;;;;;40.67;37.87;;;5.80;73.10;;;;;;5053753;28;20179;-88
2024/03/19 03:27:44;;;;;;;42.27;39.23;;;5.80;73.20;;;;;;5035796;28;20203;-89
2024/03/19 03:30:11;;;;;;;40.27;37.43;;;5.80;73.00;;;;;;5039519;28;20202;-89
2024/03/19 03:32:38;;;;;;;42.60;39.63;;;5.80;73.30;;;;;;5057487;28;20611;-88
2024/03/19 03:35:04;;;;;;;39.83;36.87;;;5.70;73.30;;;;;;5057670;28;20655;-88
2024/03/19 03:37:31;;;;;;;40.60;37.80;;;5.70;73.40;;;;;;5039674;28;20678;-89
2024/03/19 03:39:57;;;;;;;39.53;36.63;;;5.70;73.60;;;;;;5039808;28;20206;-89
2024/03/19 03:42:26;;;;;;;39.80;37.20;;;5.60;73.90;;;;;;5057365;28;20188;-89
2024/03/19 03:44:51;;;;;;;40.33;37.50;;;5.50;74.10;;;;;;5039324;28;20282;-86
2024/03/19 03:47:17;;;;;;;41.87;38.17;;;5.50;74.20;;;;;;5040371;28;20643;-87
2024/03/19 03:49:47;;;;;;;40.27;37.57;;;5.40;74.40;;;;;;5039166;28;20183;-90
2024/03/19 03:52:13;;;;;;;38.90;36.30;;;5.40;74.60;;;;;;5039141;28;20203;-88
2024/03/19 03:54:38;;;;;;;42.83;39.70;;;5.30;75.00;;;;;;5057538;28;20194;-90
2024/03/19 03:57:04;;;;;;;43.03;40.13;;;5.30;74.90;;;;;;5057575;28;20179;-87
2024/03/19 03:59:29;;;;;;;42.27;39.23;;;5.20;75.00;;;;;;5056977;28;20566;-88
2024/03/19 04:01:55;;;;;;;41.33;38.53;;;5.20;75.20;;;;;;5038992;28;20205;-87
2024/03/19 04:04:20;;;;;;;42.43;39.53;;;5.10;75.40;;;;;;5056713;28;20265;-88
2024/03/19 04:06:48;;;;;;;42.47;39.63;;;5.00;75.40;;;;;;5039006;28;20180;-88
2024/03/19 04:09:15;;;;;;;43.47;40.33;;;5.00;75.70;;;;;;5056626;28;20187;-88
2024/03/19 04:11:40;;;;;;;43.70;40.37;;;4.90;75.80;;;;;;5056604;28;20594;-88
2024/03/19 04:14:06;;;;;;;40.83;38.03;;;4.90;76.10;;;;;;5056683;28;20183;-88
2024/03/19 04:16:31;;;;;;;42.07;39.33;;;4.80;76.20;;;;;;5038788;28;20186;-88
2024/03/19 04:18:57;;;;;;;39.43;36.70;;;4.70;76.50;;;;;;5038722;28;20270;-87
2024/03/19 04:21:23;;;;;;;40.53;37.47;;;4.70;76.70;;;;;;5056711;28;20191;-90
2024/03/19 04:23:48;;;;;;;38.23;35.53;;;4.60;77.00;;;;;;5056371;28;20177;-88
2024/03/19 04:26:14;;;;;;;41.47;38.50;;;4.50;77.20;;;;;;5038465;28;20183;-88
2024/03/19 04:28:39;;;;;;;31.03;28.83;;;4.50;77.30;;;;;;5057029;28;20207;-89
2024/03/19 04:31:05;;;;;;;32.63;30.33;;;4.40;77.50;;;;;;5038488;28;20685;-88
2024/03/19 04:33:31;;;;;;;31.53;29.43;;;4.40;77.50;;;;;;5056519;28;20171;-89
2024/03/19 04:35:57;;;;;;;30.73;28.40;;;4.40;77.60;;;;;;5056120;28;20183;-88
2024/03/19 04:38:22;;;;;;;31.10;28.70;;;4.40;77.80;;;;;;5056233;28;20169;-89
2024/03/19 04:40:48;;;;;;;31.47;29.23;;;4.40;77.90;;;;;;5038024;28;20233;-89
2024/03/19 04:43:13;;;;;;;32.40;30.10;;;4.30;77.80;;;;;;5038285;28;20192;-88
2024/03/19 04:45:39;;;;;;;32.00;29.80;;;4.30;78.00;;;;;;5038364;28;20201;-89
2024/03/19 04:48:05;;;;;;;33.50;31.40;;;4.30;78.10;;;;;;5038139;28;20226;-89
2024/03/19 04:50:31;;;;;;;30.67;28.67;;;4.30;78.20;;;;;;5038093;28;20616;-87
2024/03/19 04:52:56;;;;;;;19.43;17.77;;;4.30;78.30;;;;;;5037970;28;20204;-88
2024/03/19 04:55:22;;;;;;;19.33;17.93;;;4.30;78.30;;;;;;5038076;28;20236;-89
2024/03/19 04:57:47;;;;;;;19.43;17.57;;;4.20;78.20;;;;;;5038365;28;20214;-87
2024/03/19 05:00:16;;;;;;;17.90;16.50;;;4.20;78.40;;;;;;5055799;28;20180;-88
2024/03/19 05:02:43;;;;;;;18.53;17.33;;;4.20;78.50;;;;;;5055879;28;20272;-89
2024/03/19 05:05:09;;;;;;;19.57;17.87;;;4.10;78.50;;;;;;5037975;28;20182;-88
2024/03/19 05:07:34;;;;;;;18.10;16.87;;;4.10;78.70;;;;;;5055694;28;20234;-88
2024/03/19 05:10:00;;;;;;;18.53;16.90;;;4.00;79.00;;;;;;5037681;28;20186;-89
2024/03/19 05:12:25;;;;;;;18.10;16.50;;;4.00;79.10;;;;;;5055396;28;20197;-88
2024/03/19 05:14:51;;;;;;;17.70;16.40;;;4.00;79.20;;;;;;5037674;28;20177;-89
2024/03/19 05:17:17;;;;;;;17.57;16.23;;;4.00;79.20;;;;;;5055561;28;20664;-87
2024/03/19 05:19:42;;;;;;;17.97;16.23;;;4.00;79.20;;;;;;5055402;28;20549;-90
2024/03/19 05:22:09;;;;;;;18.17;16.77;;;4.00;79.30;;;;;;5037613;28;20704;-89
2024/03/19 05:24:35;;;;;;;17.03;15.73;;;4.00;79.40;;;;;;5037538;28;20185;-88
2024/03/19 05:27:02;;;;;;;17.67;16.27;;;3.90;79.30;;;;;;5037855;28;20176;-88
2024/03/19 05:29:27;;;;;;;16.77;15.57;;;3.90;79.50;;;;;;5055212;28;20168;-89
2024/03/19 05:31:53;;;;;;;17.50;16.00;;;3.90;79.40;;;;;;5037055;28;20271;-89
2024/03/19 05:34:19;;;;;;;16.63;15.30;;;3.90;79.60;;;;;;5055474;28;20180;-89
2024/03/19 05:36:44;;;;;;;18.50;16.90;;;3.90;79.50;;;;;;5054969;28;20588;-89
2024/03/19 05:39:10;;;;;;;17.10;15.97;;;3.90;79.40;;;;;;5037276;28;20186;-89
2024/03/19 05:41:38;;;;;;;17.57;16.07;;;3.90;79.60;;;;;;5055307;28;20195;-89
2024/03/19 05:44:05;;;;;;;18.23;16.17;;;3.90;79.60;;;;;;5037165;28;20192;-89
2024/03/19 05:46:30;;;;;;;17.73;16.03;;;3.80;79.50;;;;;;5037013;28;20186;-89
2024/03/19 05:48:56;;;;;;;17.00;15.50;;;3.90;79.70;;;;;;5037296;28;20180;-86
2024/03/19 05:51:22;;;;;;;17.40;15.77;;;3.80;79.80;;;;;;5054654;28;20275;-88
2024/03/19 05:53:47;;;;;;;17.27;15.97;;;3.80;79.90;;;;;;5037270;28;20173;-88
2024/03/19 05:56:13;;;;;;;19.10;15.57;;;3.80;79.70;;;;;;5055161;28;20171;-89
2024/03/19 05:58:39;;;;;;;16.73;15.27;;;3.80;79.60;;;;;;5036884;28;20210;-89
2024/03/19 06:01:04;;;;;;;15.70;14.40;;;4.00;79.60;;;;;;5036850;28;20194;-89
2024/03/19 06:03:34;;;;;;;16.70;15.33;;;4.00;79.50;;;;;;5036810;28;20607;-89
2024/03/19 06:06:10;;;;;;;17.63;16.23;;;4.00;79.70;;;;;;5036661;28;20236;-89
2024/03/19 06:08:37;;;;;;;16.60;14.93;;;4.00;79.50;;;;;;5036888;28;20522;-89
2024/03/19 06:11:03;;;;;;;17.20;15.37;;;4.10;79.40;;;;;;5036214;28;20196;-89
2024/03/19 06:13:29;;;;;;;15.83;14.53;;;4.10;79.30;;;;;;5037256;28;20182;-89
2024/03/19 06:15:55;;;;;;;16.83;15.37;;;4.10;79.10;;;;;;5036690;28;20179;-88
2024/03/19 06:18:21;;;;;;;16.40;15.10;;;4.20;79.20;;;;;;5054381;28;20269;-87
2024/03/19 06:20:46;;;;;;;17.30;15.77;;;4.20;79.00;;;;;;5054234;28;20229;-88
2024/03/19 06:23:12;;;;;;;26.43;24.43;;;4.30;79.20;;;;;;5054349;28;20278;-89
2024/03/19 06:25:41;;;;;;;27.90;26.00;;;4.30;79.10;;;;;;5054100;28;20203;-89
2024/03/19 06:28:07;;;;;;;29.33;27.23;;;4.30;78.70;;;;;;5054614;28;20176;-87
2024/03/19 06:30:33;;;;;;;28.93;26.87;;;4.30;78.70;;;;;;5054201;28;20203;-89
2024/03/19 06:32:59;;;;;;;28.87;26.77;;;4.30;78.40;;;;;;5036346;28;20205;-87
2024/03/19 06:35:25;;;;;;;17.77;16.13;;;4.30;78.10;;;;;;5053930;28;20178;-89
2024/03/19 06:37:51;;;;;;;18.67;17.17;;;4.40;78.20;;;;;;5053931;28;20193;-89
2024/03/19 06:40:17;;;;;;;29.17;27.07;;;4.40;78.10;;;;;;5053596;28;20170;-88
2024/03/19 06:42:43;;;;;;;29.73;27.47;;;4.40;77.60;;;;;;5053810;28;20197;-89
2024/03/19 06:45:09;;;;;;;30.83;28.33;;;4.40;78.10;;;;;;5036122;28;20183;-88
2024/03/19 06:47:35;;;;;;;30.63;28.33;;;4.50;77.40;;;;;;5054665;28;20716;-88
2024/03/19 06:50:06;;;;;;;31.97;29.73;;;4.60;77.10;;;;;;5036231;28;20214;-88
2024/03/19 06:52:35;;;;;;;32.57;30.27;;;4.70;76.90;;;;;;5035895;28;20250;-89
2024/03/19 06:55:02;;;;;;;31.43;29.23;;;4.70;77.20;;;;;;5054531;28;20175;-88
2024/03/19 06:57:29;;;;;;;32.63;30.33;;;4.80;76.80;;;;;;5036732;28;20175;-89
2024/03/19 06:59:54;;;;;;;34.57;32.17;;;4.60;76.20;;;;;;5036777;28;20182;-87
2024/03/19 07:02:20;;;;;;;31.43;29.33;;;4.70;77.30;;;;;;5035677;28;20195;-88
2024/03/19 07:04:47;;;;;;;31.67;29.37;;;4.80;77.20;;;;;;5036448;28;20175;-88
2024/03/19 07:07:17;;;;;;;28.73;26.50;;;4.80;76.00;;;;;;5054614;28;20171;-89
2024/03/19 07:09:45;;;;;;;29.80;27.70;;;5.00;76.40;;;;;;5054590;28;20155;-88
2024/03/19 07:12:14;;;;;;;29.57;27.37;;;5.10;76.70;;;;;;5053878;28;20208;-88
2024/03/19 07:14:41;;;;;;;29.17;27.00;;;5.00;76.60;;;;;;5054328;28;20258;-89
2024/03/19 07:17:07;;;;;;;30.80;28.50;;;5.00;76.00;;;;;;5036308;28;20663;-88
2024/03/19 07:19:33;;;;;;;30.37;28.20;;;5.20;76.40;;;;;;5053694;28;20191;-87
2024/03/19 07:21:59;;;;;;;30.27;28.27;;;5.20;76.30;;;;;;5054061;28;20199;-90
2024/03/19 07:24:24;;;;;;;31.77;29.47;;;5.30;75.40;;;;;;5054007;28;20179;-89
2024/03/19 07:26:50;;;;;;;31.60;29.33;;;5.20;75.50;;;;;;5053852;28;20277;-88
2024/03/19 07:29:15;;;;;;;29.13;26.97;;;5.20;75.30;;;;;;5054137;28;20168;-89
2024/03/19 07:31:42;;;;;;;31.30;29.00;;;5.30;75.30;;;;;;5036342;28;20718;-90
2024/03/19 07:34:08;;;;;;;30.00;27.90;;;5.40;75.10;;;;;;5035909;28;20179;-90
2024/03/19 07:36:35;;;;;;;30.50;27.83;;;5.40;74.60;;;;;;5035680;28;20181;-89
2024/03/19 07:39:03;;;;;;;32.10;29.80;;;5.30;74.30;;;;;;5036396;28;20622;-88
2024/03/19 07:41:28;;;;;;;34.80;32.33;;;5.20;74.30;;;;;;5053653;28;20184;-90
2024/03/19 07:43:54;;;;;;;34.30;31.80;;;5.10;74.20;;;;;;5053662;28;20622;-88
2024/03/19 07:46:20;;;;;;;34.23;31.83;;;5.10;75.10;;;;;;5054041;28;20172;-89
2024/03/19 07:48:46;;;;;;;20.53;18.90;;;5.30;75.20;;;;;;5053441;28;20652;-88
2024/03/19 07:51:11;;;;;;;21.77;20.00;;;5.40;75.10;;;;;;5036364;28;20192;-89
2024/03/19 07:53:37;;;;;;;21.67;19.90;;;5.50;74.60;;;;;;5035530;28;20180;-86
2024/03/19 07:56:03;;;;;;;21.10;19.43;;;5.20;75.10;;;;;;5053358;28;20174;-87
2024/03/19 07:58:29;;;;;;;22.23;20.47;;;5.50;75.20;;;;;;5036347;28;20374;-86
2024/03/19 08:00:54;;;;;;;21.77;19.93;;;5.60;74.30;;;;;;5053742;28;20259;-87
2024/03/19 08:03:20;;;;;;;21.20;19.30;;;5.70;74.30;;;;;;5055166;28;20205;-88
2024/03/19 08:05:45;;;;;;;20.70;19.20;;;5.50;74.30;;;;;;5036705;28;20266;-89
2024/03/19 08:08:12;;;;;;;21.53;19.70;;;5.40;74.30;;;;;;5035980;28;20184;-89
2024/03/19 08:10:37;;;;;;;20.77;18.83;;;5.50;75.00;;;;;;5036301;28;20676;-89
2024/03/19 08:13:03;;;;;;;21.97;19.97;;;5.80;75.00;;;;;;5054031;28;20216;-89
2024/03/19 08:15:30;;;;;;;21.90;20.10;;;5.70;74.10;;;;;;5038726;28;20569;-89
2024/03/19 08:17:55;;;;;;;21.90;20.20;;;5.60;74.20;;;;;;5057951;28;20191;-89
2024/03/19 08:20:21;;;;;;;22.53;20.73;;;5.70;73.80;;;;;;5041272;28;20176;-89
2024/03/19 08:22:46;;;;;;;21.70;19.90;;;5.70;74.00;;;;;;5058905;28;20226;-88
2024/03/19 08:25:13;;;;;;;22.17;20.10;;;5.80;74.10;;;;;;5039432;28;20210;-89
2024/03/19 08:27:39;;;;;;;22.40;20.40;;;6.10;73.80;;;;;;5057247;28;20214;-88
2024/03/19 08:30:06;;;;;;;23.30;21.07;;;5.90;74.00;;;;;;5038995;28;20553;-87
2024/03/19 08:32:31;;;;;;;22.97;21.17;;;6.00;73.60;;;;;;5057087;28;20196;-89
2024/03/19 08:34:57;;;;;;;22.10;20.40;;;6.10;73.70;;;;;;5038911;28;20234;-89
2024/03/19 08:37:23;;;;;;;23.33;21.33;;;6.30;73.00;;;;;;5039262;28;20658;-88
2024/03/19 08:39:49;;;;;;;21.43;19.77;;;6.30;73.20;;;;;;5039849;28;20176;-88
2024/03/19 08:42:15;;;;;;;20.93;19.13;;;6.30;73.30;;;;;;5039597;28;20750;-88
2024/03/19 08:44:40;;;;;;;22.60;20.70;;;6.20;73.30;;;;;;5038691;28;20276;-89
2024/03/19 08:47:06;;;;;;;23.70;21.70;;;6.10;73.20;;;;;;5056488;28;20168;-88
2024/03/19 08:49:31;;;;;;;23.40;21.43;;;6.00;72.90;;;;;;5038350;28;20309;-89
2024/03/19 08:51:57;;;;;;;23.37;21.47;;;6.20;73.00;;;;;;5038320;28;20590;-87
2024/03/19 08:54:23;;;;;;;23.30;21.20;;;6.30;72.70;;;;;;5056317;28;20605;-89
2024/03/19 08:56:49;;;;;;;23.60;21.40;;;6.50;73.80;;;;;;5038454;28;20195;-88
2024/03/19 08:59:14;;;;;;;23.30;21.40;;;6.70;74.10;;;;;;5037921;28;20172;-89
2024/03/19 09:01:40;;;;;;;24.37;22.37;;;6.80;73.40;;;;;;5056274;28;20196;-89
2024/03/19 09:04:06;;;;;;;35.20;32.50;;;6.70;73.40;;;;;;5038130;28;20596;-89
2024/03/19 09:06:32;;;;;;;37.10;34.40;;;6.90;73.30;;;;;;5038435;28;20651;-90
2024/03/19 09:08:58;;;;;;;35.50;32.63;;;7.00;72.60;;;;;;5038327;28;20535;-89
2024/03/19 09:11:23;;;;;;;33.33;30.57;;;7.00;72.30;;;;;;5037493;28;20719;-88
2024/03/19 09:13:49;;;;;;;33.37;30.77;;;7.20;73.20;;;;;;5056268;28;20186;-88
2024/03/19 09:16:15;;;;;;;33.20;30.63;;;7.20;72.50;;;;;;5055838;28;20176;-87
2024/03/19 09:18:42;;;;;;;33.07;30.60;;;7.20;72.20;;;;;;5038199;28;20168;-89
2024/03/19 09:21:09;;;;;;;34.03;31.43;;;7.20;72.10;;;;;;5055471;28;20197;-88
2024/03/19 09:23:35;;;;;;;33.27;30.60;;;7.30;72.30;;;;;;5037921;28;20183;-89
2024/03/19 09:26:01;;;;;;;33.53;30.90;;;7.40;72.40;;;;;;5054689;28;20176;-88
2024/03/19 09:28:31;;;;;;;35.00;32.07;;;7.40;71.20;;;;;;5055808;28;20170;-88
2024/03/19 09:30:57;;;;;;;35.77;32.97;;;7.40;71.30;;;;;;5037664;28;20196;-87
2024/03/19 09:33:23;;;;;;;35.60;32.97;;;7.70;71.70;;;;;;5037925;28;20191;-89
2024/03/19 09:35:49;;;;;;;35.83;32.90;;;7.60;71.10;;;;;;5055700;28;20685;-88
2024/03/19 09:38:15;;;;;;;32.57;29.93;;;7.60;71.00;;;;;;5055806;28;20175;-89
2024/03/19 09:40:45;;;;;;;33.67;30.83;;;7.70;71.30;;;;;;5055035;28;20250;-87
2024/03/19 09:43:24;;;;;;;37.70;34.90;;;7.60;71.60;;;;;;5037620;28;20196;-88
2024/03/19 09:45:51;;;;;;;38.20;34.87;;;7.80;70.90;;;;;;5037126;28;20183;-88
2024/03/19 09:48:19;;;;;;;41.03;38.00;;;7.90;71.50;;;;;;5054792;28;20199;-88
2024/03/19 09:50:46;;;;;;;37.00;34.03;;;8.10;71.00;;;;;;5037133;28;20257;-88
2024/03/19 09:53:24;;;;;;;35.03;31.87;;;8.20;70.90;;;;;;5036709;28;20271;-88
2024/03/19 09:55:52;;;;;;;35.57;32.53;;;8.00;70.70;;;;;;5036921;28;20249;-87
2024/03/19 09:58:21;;;;;;;38.97;35.70;;;8.20;70.70;;;;;;5054708;28;20211;-88
2024/03/19 10:00:46;;;;;;;40.17;37.17;;;8.10;70.10;;;;;;5054444;28;20572;-88
2024/03/19 10:03:13;;;;;;;40.50;37.50;;;8.30;70.20;;;;;;5054554;28;20192;-88
2024/03/19 10:05:39;;;;;;;39.93;36.50;;;8.40;70.00;;;;;;5036469;28;20180;-88
2024/03/19 10:08:06;;;;;;;25.70;23.60;;;8.50;69.90;;;;;;5036795;28;20178;-89
2024/03/19 10:10:31;;;;;;;26.60;24.27;;;8.50;70.30;;;;;;5036916;28;20223;-88
2024/03/19 10:12:57;;;;;;;27.27;24.70;;;8.50;69.50;;;;;;5037226;28;20771;-87
2024/03/19 10:15:24;;;;;;;26.77;24.53;;;8.30;71.00;;;;;;5054637;28;20588;-88
2024/03/19 10:17:51;;;;;;;27.47;25.07;;;8.30;71.40;;;;;;5036765;28;20267;-89
2024/03/19 10:20:20;;;;;;;27.80;25.33;;;8.20;71.50;;;;;;5054687;28;20164;-88
2024/03/19 10:22:46;;;;;;;28.10;25.57;;;8.30;72.20;;;;;;5036335;28;20195;-86
2024/03/19 10:25:14;;;;;;;25.20;23.20;;;8.70;71.40;;;;;;5054226;28;20160;-88
2024/03/19 10:27:47;;;;;;;28.00;25.37;;;8.60;70.70;;;;;;5055129;28;20182;-89
2024/03/19 10:30:21;;;;;;;27.83;25.40;;;8.80;69.80;;;;;;5053932;28;20206;-89
2024/03/19 10:32:49;;;;;;;28.20;25.70;;;8.90;68.70;;;;;;5036085;28;20248;-88
2024/03/19 10:35:23;;;;;;;28.57;25.80;;;8.90;68.90;;;;;;5055385;28;20546;-87
2024/03/19 10:37:51;;;;;;;27.77;25.47;;;8.60;69.40;;;;;;5037780;28;20225;-88
2024/03/19 10:40:18;;;;;;;26.63;24.43;;;8.50;71.10;;;;;;5054520;28;20640;-87
2024/03/19 10:42:45;;;;;;;27.03;24.63;;;8.60;70.30;;;;;;5055490;28;20195;-89
2024/03/19 10:45:21;;;;;;;28.77;26.27;;;8.60;69.70;;;;;;5038183;28;20176;-89
2024/03/19 10:47:48;;;;;;;28.63;26.00;;;8.50;70.30;;;;;;5036339;28;20643;-88
2024/03/19 10:50:15;;;;;;;27.13;24.90;;;8.30;70.80;;;;;;5036690;28;20172;-87
2024/03/19 10:53:03;;;;;;;28.87;26.27;;;8.30;71.70;;;;;;5036247;28;20230;-88
2024/03/19 10:55:30;;;;;;;27.77;25.43;;;8.50;70.80;;;;;;5035566;28;20179;-89
2024/03/19 10:58:03;;;;;;;28.50;25.80;;;8.60;71.40;;;;;;5036604;28;20302;-88
2024/03/19 11:00:29;;;;;;;28.13;25.77;;;8.60;71.80;;;;;;5053583;28;20160;-89
2024/03/19 11:03:00;;;;;;;26.93;24.60;;;8.80;71.80;;;;;;5053538;28;20286;-89
2024/03/19 11:05:26;;;;;;;28.37;25.50;;;9.00;71.60;;;;;;5053620;28;20160;-88
2024/03/19 11:07:54;;;;;;;30.10;27.30;;;9.40;71.80;;;;;;5035775;28;20713;-88
2024/03/19 11:10:31;;;;;;;29.23;26.37;;;9.80;69.00;;;;;;5035917;28;20214;-89
2024/03/19 11:13:15;;;;;;;28.07;25.53;;;10.00;70.60;;;;;;5053618;28;20253;-88
2024/03/19 11:15:43;;;;;;;28.73;25.93;;;10.10;70.20;;;;;;5035513;28;20176;-88
2024/03/19 11:18:11;;;;;;;34.73;31.77;;;10.30;70.30;;;;;;5053539;28;20518;-88
2024/03/19 11:20:44;;;;;;;43.00;39.63;;;10.50;68.30;;;;;;5053616;28;20173;-89
2024/03/19 11:23:14;;;;;;;42.53;38.40;;;10.50;69.30;;;;;;5035961;28;20675;-89
2024/03/19 11:25:43;;;;;;;41.40;38.00;;;10.60;69.20;;;;;;5053702;28;20262;-89
2024/03/19 11:28:21;;;;;;;40.93;37.63;;;10.90;68.00;;;;;;5053711;28;20172;-89
2024/03/19 11:30:48;;;;;;;40.80;37.50;;;11.10;68.30;;;;;;5053375;28;20191;-89
2024/03/19 11:33:14;;;;;;;42.20;38.60;;;10.80;67.30;;;;;;5035661;28;20253;-88
2024/03/19 11:35:39;;;;;;;41.50;37.97;;;10.80;68.00;;;;;;5035504;28;20591;-89
2024/03/19 11:38:05;;;;;;;40.17;36.87;;;10.80;68.90;;;;;;5036237;28;20172;-89
2024/03/19 11:40:31;;;;;;;41.40;38.00;;;11.20;68.60;;;;;;5053501;28;20176;-88
2024/03/19 11:42:58;;;;;;;42.57;38.77;;;11.00;68.30;;;;;;5035825;28;20233;-88
2024/03/19 11:45:24;;;;;;;40.87;36.80;;;11.50;67.60;;;;;;5053632;28;20180;-88
2024/03/19 11:47:50;;;;;;;30.00;27.40;;;11.30;68.40;;;;;;5035528;28;20683;-89
2024/03/19 11:50:19;;;;;;;29.93;27.23;;;11.20;69.30;;;;;;5055880;28;20172;-87
2024/03/19 11:52:48;;;;;;;30.17;27.57;;;11.10;69.50;;;;;;5057096;28;20246;-88
2024/03/19 11:55:16;;;;;;;31.47;28.50;;;11.00;69.50;;;;;;5039131;28;20176;-88
2024/03/19 11:57:42;;;;;;;30.00;27.27;;;10.90;69.20;;;;;;5057246;28;20227;-88
2024/03/19 12:00:11;;;;;;;30.87;28.20;;;11.30;68.20;;;;;;5057180;28;20177;-87
2024/03/19 12:02:41;;;;;;;29.93;27.23;;;11.50;68.20;;;;;;5039229;28;20206;-89
2024/03/19 12:05:15;;;;;;;31.40;28.60;;;11.50;68.40;;;;;;5057336;28;20250;-87
2024/03/19 12:07:47;;;;;;;31.03;28.23;;;11.80;68.60;;;;;;5038988;28;20176;-87
2024/03/19 12:10:26;;;;;;;30.80;27.80;;;11.60;69.00;;;;;;5057078;28;20577;-89
2024/03/19 12:12:52;;;;;;;32.23;29.13;;;11.60;70.10;;;;;;5040340;28;20294;-90
2024/03/19 12:15:20;;;;;;;32.13;29.23;;;12.00;69.60;;;;;;5038675;28;20182;-90
2024/03/19 12:17:46;;;;;;;32.83;29.83;;;12.30;68.50;;;;;;5056585;28;20183;-90
2024/03/19 12:20:12;;;;;;;31.73;28.80;;;12.40;66.90;;;;;;5056220;28;20168;-91
2024/03/19 12:22:45;;;;;;;32.77;29.60;;;12.60;66.40;;;;;;5056726;28;20188;-92
2024/03/19 12:25:11;;;;;;;33.60;30.20;;;12.50;66.10;;;;;;5056698;28;20298;-91
2024/03/19 12:27:40;;;;;;;32.23;29.20;;;12.00;67.80;;;;;;5058042;28;20172;-90
2024/03/19 12:30:11;;;;;;;32.43;29.47;;;12.10;68.90;;;;;;5039527;28;20659;-90
2024/03/19 12:32:46;;;;;;;32.17;28.97;;;12.20;68.80;;;;;;5056646;28;20721;-89